Search for airport 
image banner adimage banner adimage banner ad
image banner ad

KTRM - Jacqueline Cochran Rgnl

Located in Palm Springs, United States

ICAO - TRM, IATA -

Data provided by Airmate  

General information

Coordinates: N33°37'36" W116°9'35"
Elevation is -114 feet MSL.
Magnetic variation is 13° East
View others Airports in California

Operational data

Special qualification required
Current time UTC:
Current local time:
Weather
METAR: KTRM 291452Z AUTO 33009KT 10SM CLR 34/11 A2979 RMK AO2 SLP091 T03440106 51010
TAF: KTRM 291120Z 2912/3012 33006KT P6SM SKC FM292000 15008KT P6SM SKC FM300000 VRB05KT P6SM FEW200 FM300300 33011KT P6SM SCT200 FM301000 33006KT P6SM SCT200
View NOTAMs / SUP AIP / TFR affecting this airport [VIEW]
Communications frequencies: [VIEW]

Runways:

RWY identifierQFULength (ft)Width (ft)SurfaceLDA (ft)
12135°4995100ASPH
30315°4995100ASPH
17180°8500150ASPH
358500150ASPH

Airport contact information

Address: Palm Springs United States

Other aviation service providers

Flight schools

Palm Springs Pilots Association

Palm Springs Pilots Association

Socal Pilot Center

Socal Pilot Center

Palm Springs Flying School

Palm Springs Flying School
cfibrian@gmail.com+1(760)399-8371

Satellite view of KTRM